Terminal Aerodrome Forecast
Issued by NWS Jackson, KY

Home | Current Version | Previous Version | Text Only | Print | Product List | Glossary On
Versions: 1 2 3 4 5 6 7 8 9 10 11 12 13 14 15 16
000
FTUS43 KJKL 150542
TAFLOZ
TAF
KLOZ 150542Z 1506/1606 VRB03KT P6SM OVC035
     FM150800 VRB03KT P6SM OVC025
     FM151300 VRB04KT P6SM OVC035
     FM151700 27008G15KT P6SM SCT035
     FM160000 VRB04KT P6SM FEW040=

USA.gov is the U.S. government's official web portal to all federal, state and local government web resources and services.